Archival Weather

Prince Abdulmajeed Bin Abdula

Prince Abdulmajeed Bin Abdula, Saudi Arabia (OEAO)

Report from: Monday, May 23, 2022 4:00 AM UTC
Current time: Tuesday, August 16, 2022 6:32 AM UTC

Current weather
Weather history
Weather forecast

Temperature27.0°C (80.6°F)
Heat index26.4°C (79.5°F)
Dew point3.0°C (37.4°F)
Winds 16 kts (8.2 m/s, 18.4 mph) North (360°)
Visibility5.6 mi. (9 km)
Altimeter29.85 in.Hg (1011 mB)
Relative humidity21 %
Density altitude1,575 ft. (480 m)
Remarks No significant changes expected in the next two hours
Flight conditions Visual Meteorological Conditions
Raw dataOEAO 230400Z 36016KT 9000 NSC 27/03 Q1011 NOSIG
An error has occurred. This application may no longer respond until reloaded. Reload 🗙